createdAt,value
2022-08-19T00:00:10.120Z,20.71
2022-08-19T00:00:41.964Z,20.70
2022-08-19T00:01:14.367Z,20.74
2022-08-19T00:01:59.353Z,20.80
2022-08-19T00:02:31.857Z,20.69
2022-08-19T00:03:05.016Z,20.61
2022-08-19T00:03:36.874Z,20.69
2022-08-19T00:04:13.650Z,20.76
2022-08-19T00:04:47.919Z,20.76
2022-08-19T00:05:20.965Z,20.69
2022-08-19T00:05:53.595Z,20.74
2022-08-19T00:06:26.637Z,20.68
2022-08-19T00:06:59.228Z,20.74
2022-08-19T00:07:31.014Z,20.81
2022-08-19T00:08:03.671Z,20.89
2022-08-19T00:08:35.572Z,20.99
2022-08-19T00:09:10.060Z,20.95
2022-08-19T00:09:41.843Z,21.00
2022-08-19T00:10:16.756Z,21.05
2022-08-19T00:10:48.840Z,20.96
2022-08-19T00:11:25.677Z,20.89
2022-08-19T00:11:59.033Z,20.57
2022-08-19T00:12:30.756Z,20.75
2022-08-19T00:13:02.592Z,20.71
2022-08-19T00:13:34.643Z,20.81
2022-08-19T00:14:09.552Z,20.84
2022-08-19T00:14:41.831Z,20.87
2022-08-19T00:15:17.055Z,20.92
2022-08-19T00:15:48.805Z,20.42
2022-08-19T00:16:25.762Z,20.29
2022-08-19T00:16:58.800Z,20.56
2022-08-19T00:17:30.865Z,20.73
2022-08-19T00:18:02.650Z,20.69
2022-08-19T00:18:35.447Z,20.66
2022-08-19T00:19:07.573Z,20.66
2022-08-19T00:19:40.073Z,20.62
2022-08-19T00:20:17.571Z,20.44
2022-08-19T00:20:49.456Z,20.54
2022-08-19T00:21:21.263Z,20.63
2022-08-19T00:21:53.813Z,20.76
2022-08-19T00:22:28.005Z,20.79
2022-08-19T00:22:59.780Z,20.65
2022-08-19T00:23:32.771Z,20.78
2022-08-19T00:24:05.091Z,20.93
2022-08-19T00:24:38.911Z,20.77
2022-08-19T00:25:11.818Z,20.25
2022-08-19T00:25:45.427Z,20.41
2022-08-19T00:26:21.113Z,20.61
2022-08-19T00:26:53.377Z,20.51
2022-08-19T00:27:26.925Z,20.60
2022-08-19T00:28:00.330Z,20.64
2022-08-19T00:28:33.707Z,20.67
2022-08-19T00:29:10.398Z,20.78
2022-08-19T00:29:42.141Z,20.70
2022-08-19T00:30:14.157Z,20.68
2022-08-19T00:30:46.018Z,20.71
2022-08-19T00:31:18.346Z,20.74
2022-08-19T00:31:53.863Z,20.74
2022-08-19T00:32:27.251Z,20.79
2022-08-19T00:32:59.622Z,20.74
2022-08-19T00:33:33.450Z,20.52
2022-08-19T00:34:05.207Z,20.61
2022-08-19T00:34:37.119Z,20.49
2022-08-19T00:35:10.603Z,20.02
2022-08-19T00:35:42.303Z,20.25
2022-08-19T00:36:14.076Z,20.34
2022-08-19T00:36:46.589Z,20.52
2022-08-19T00:37:19.001Z,20.65
2022-08-19T00:37:51.323Z,20.70
2022-08-19T00:38:30.668Z,20.47
2022-08-19T00:39:10.265Z,20.17
2022-08-19T00:39:42.044Z,20.38
2022-08-19T00:40:14.025Z,20.31
2022-08-19T00:40:48.862Z,20.26
2022-08-19T00:41:22.665Z,20.46
2022-08-19T00:41:54.457Z,20.53
2022-08-19T00:42:29.368Z,20.33
2022-08-19T00:43:01.167Z,20.51
2022-08-19T00:43:32.946Z,20.57
2022-08-19T00:44:15.445Z,20.45
2022-08-19T00:44:48.194Z,20.54
2022-08-19T00:45:22.778Z,20.52
2022-08-19T00:45:55.146Z,20.30
2022-08-19T00:46:28.213Z,20.31
2022-08-19T00:47:00.039Z,20.17
2022-08-19T00:47:33.145Z,20.25
2022-08-19T00:48:05.547Z,20.44
2022-08-19T00:48:46.543Z,20.41
2022-08-19T00:49:25.976Z,20.61
2022-08-19T00:49:59.467Z,20.65
2022-08-19T00:50:31.792Z,20.55
2022-08-19T00:51:05.674Z,20.42
2022-08-19T00:51:37.951Z,20.52
2022-08-19T00:52:13.454Z,20.57
2022-08-19T00:52:49.698Z,20.62
2022-08-19T00:53:25.170Z,20.68
2022-08-19T00:53:58.442Z,20.52
2022-08-19T00:54:32.403Z,20.23
2022-08-19T00:55:11.198Z,20.04
2022-08-19T00:55:51.425Z,20.12
2022-08-19T00:56:24.269Z,20.37
2022-08-19T00:56:56.062Z,20.32
2022-08-19T00:57:35.793Z,20.35
2022-08-19T00:58:14.903Z,20.21
2022-08-19T00:58:46.960Z,20.16
2022-08-19T00:59:56.469Z,19.99
2022-08-19T01:00:16.416Z,20.12
2022-08-19T01:00:49.020Z,20.18
2022-08-19T01:01:20.878Z,20.21
2022-08-19T01:01:53.445Z,19.90
2022-08-19T01:02:27.572Z,19.78
2022-08-19T01:03:00.009Z,19.77
2022-08-19T01:03:56.949Z,19.99
2022-08-19T01:04:23.590Z,20.01
2022-08-19T01:04:56.251Z,19.91
2022-08-19T01:05:30.106Z,19.90
2022-08-19T01:06:02.084Z,19.99
2022-08-19T01:06:36.404Z,20.02
2022-08-19T01:07:09.061Z,19.88
2022-08-19T01:07:48.965Z,19.88
2022-08-19T01:08:21.306Z,19.77
2022-08-19T01:08:54.651Z,19.79
2022-08-19T01:09:26.475Z,19.78
2022-08-19T01:09:58.259Z,19.98
2022-08-19T01:10:36.612Z,19.73
2022-08-19T01:11:09.507Z,19.75
2022-08-19T01:11:45.503Z,19.71
2022-08-19T01:12:18.576Z,19.76
2022-08-19T01:12:52.064Z,19.88
2022-08-19T01:13:27.663Z,19.88
2022-08-19T01:13:59.811Z,19.97
2022-08-19T01:14:32.242Z,19.87
2022-08-19T01:15:06.506Z,19.77
2022-08-19T01:15:51.041Z,19.87
2022-08-19T01:16:26.051Z,20.00
2022-08-19T01:17:01.050Z,19.64
2022-08-19T01:17:33.838Z,19.71
2022-08-19T01:18:12.690Z,19.65
2022-08-19T01:18:44.500Z,19.43
2022-08-19T01:19:30.099Z,19.26
2022-08-19T01:20:02.195Z,19.05
2022-08-19T01:20:35.394Z,18.90
2022-08-19T01:21:16.937Z,18.84
2022-08-19T01:21:56.686Z,18.88
2022-08-19T01:22:35.604Z,19.12
2022-08-19T01:23:07.865Z,19.15
2022-08-19T01:23:45.648Z,19.31
2022-08-19T01:24:17.435Z,19.41
2022-08-19T01:24:49.929Z,19.48
2022-08-19T01:25:41.986Z,19.38
2022-08-19T01:26:17.743Z,19.53
2022-08-19T01:26:50.803Z,19.59
2022-08-19T01:27:22.641Z,19.68
2022-08-19T01:27:59.134Z,19.73
2022-08-19T01:28:44.374Z,19.82
2022-08-19T01:29:16.960Z,19.89
2022-08-19T01:29:48.854Z,19.92
2022-08-19T01:30:27.809Z,19.99
2022-08-19T01:30:59.913Z,19.91
2022-08-19T01:31:32.651Z,19.83
2022-08-19T01:32:05.095Z,19.95
2022-08-19T01:32:36.911Z,19.96
2022-08-19T01:33:08.734Z,19.95
2022-08-19T01:33:40.546Z,19.88
2022-08-19T01:34:12.398Z,19.86
2022-08-19T01:34:47.788Z,19.68
2022-08-19T01:35:21.040Z,19.72
2022-08-19T01:35:53.484Z,19.76
2022-08-19T01:36:42.953Z,19.59
2022-08-19T01:37:16.079Z,19.69
2022-08-19T01:38:09.341Z,19.71
2022-08-19T01:38:44.406Z,19.76
2022-08-19T01:39:22.314Z,19.61
2022-08-19T01:39:54.405Z,19.69
2022-08-19T01:40:31.830Z,19.73
2022-08-19T01:41:03.776Z,19.78
2022-08-19T01:41:43.173Z,19.78
2022-08-19T01:42:14.916Z,19.74
2022-08-19T01:42:48.955Z,19.90
2022-08-19T01:43:21.661Z,19.87
2022-08-19T01:44:13.303Z,19.72
2022-08-19T01:44:45.469Z,19.64
2022-08-19T01:45:18.866Z,19.72
2022-08-19T01:45:51.748Z,19.64
2022-08-19T01:46:25.122Z,19.45
2022-08-19T01:46:57.234Z,19.59
2022-08-19T01:47:29.001Z,19.78
2022-08-19T01:48:02.211Z,19.87
2022-08-19T01:48:41.062Z,19.94
2022-08-19T01:49:13.257Z,20.01
2022-08-19T01:49:45.089Z,20.00
2022-08-19T01:50:17.348Z,20.02
2022-08-19T01:50:49.338Z,19.86
2022-08-19T01:51:23.247Z,19.85
2022-08-19T01:51:55.324Z,19.86
2022-08-19T01:52:28.235Z,19.87
2022-08-19T01:53:06.414Z,19.87
2022-08-19T01:53:40.511Z,20.01
2022-08-19T01:54:14.313Z,20.00
2022-08-19T01:54:55.290Z,19.84
2022-08-19T01:55:27.238Z,19.87
2022-08-19T01:55:59.304Z,19.88
2022-08-19T01:56:31.143Z,19.86
2022-08-19T01:57:08.116Z,19.69
2022-08-19T01:57:44.028Z,19.81
2022-08-19T01:58:21.892Z,19.86
2022-08-19T01:59:01.055Z,19.89
2022-08-19T01:59:33.915Z,19.89
2022-08-19T02:00:09.526Z,19.91
2022-08-19T02:00:45.571Z,19.88
2022-08-19T02:01:18.088Z,19.97
2022-08-19T02:01:50.760Z,20.04
2022-08-19T02:02:22.809Z,20.08
2022-08-19T02:03:00.741Z,20.06
2022-08-19T02:03:33.023Z,20.05
2022-08-19T02:04:06.073Z,20.18
2022-08-19T02:04:39.518Z,20.13
2022-08-19T02:05:14.796Z,20.06
2022-08-19T02:05:46.886Z,20.01
2022-08-19T02:06:19.065Z,19.91
2022-08-19T02:07:01.674Z,19.82
2022-08-19T02:07:33.997Z,19.98
2022-08-19T02:08:07.005Z,19.98
2022-08-19T02:08:40.634Z,20.01
2022-08-19T02:09:12.534Z,19.86
2022-08-19T02:09:44.425Z,19.95
2022-08-19T02:10:21.962Z,20.12
2022-08-19T02:10:54.091Z,20.14
2022-08-19T02:11:34.349Z,20.09
2022-08-19T02:12:08.743Z,20.14
2022-08-19T02:12:40.670Z,19.92
2022-08-19T02:13:14.508Z,19.94
2022-08-19T02:13:46.779Z,19.90
2022-08-19T02:14:18.991Z,19.92
2022-08-19T02:14:51.101Z,19.63
2022-08-19T02:15:23.164Z,19.76
2022-08-19T02:16:00.015Z,19.91
2022-08-19T02:16:32.697Z,19.99
2022-08-19T02:17:07.751Z,19.88
2022-08-19T02:17:40.333Z,19.95
2022-08-19T02:18:12.283Z,19.97
2022-08-19T02:18:44.782Z,19.81
2022-08-19T02:19:16.734Z,19.88
2022-08-19T02:19:50.015Z,19.91
2022-08-19T02:20:22.084Z,19.71
2022-08-19T02:20:54.117Z,19.88
2022-08-19T02:21:26.193Z,19.99
2022-08-19T02:21:58.304Z,19.99
2022-08-19T02:22:30.290Z,20.00
2022-08-19T02:23:02.403Z,20.04
2022-08-19T02:23:34.474Z,20.00
2022-08-19T02:24:06.790Z,20.10
2022-08-19T02:24:39.656Z,19.98
2022-08-19T02:25:13.535Z,19.70
2022-08-19T02:25:47.983Z,19.88
2022-08-19T02:26:20.368Z,19.95
2022-08-19T02:26:52.474Z,20.01
2022-08-19T02:27:24.830Z,19.90
2022-08-19T02:27:56.982Z,20.07
2022-08-19T02:28:29.049Z,20.02
2022-08-19T02:29:01.283Z,20.15
2022-08-19T02:29:33.392Z,20.20
2022-08-19T02:30:07.675Z,20.26
2022-08-19T02:30:41.424Z,20.19
2022-08-19T02:31:18.922Z,20.17
2022-08-19T02:31:51.322Z,20.08
2022-08-19T02:32:23.305Z,19.81
2022-08-19T02:32:55.526Z,19.81
2022-08-19T02:33:27.992Z,19.86
2022-08-19T02:33:59.887Z,19.81
2022-08-19T02:34:31.831Z,19.73
2022-08-19T02:35:04.286Z,19.70
2022-08-19T02:35:45.303Z,19.53
2022-08-19T02:36:21.153Z,19.50
2022-08-19T02:36:53.177Z,19.68
2022-08-19T02:37:53.915Z,19.64
2022-08-19T02:38:28.970Z,19.51
2022-08-19T02:39:01.103Z,19.58
2022-08-19T02:39:32.903Z,19.54
2022-08-19T02:40:05.297Z,19.65
2022-08-19T02:40:53.937Z,19.79
2022-08-19T02:41:29.259Z,19.52
2022-08-19T02:42:03.063Z,19.66
2022-08-19T02:42:34.912Z,19.78
2022-08-19T02:43:09.611Z,19.65
2022-08-19T02:43:44.394Z,19.79
2022-08-19T02:44:33.584Z,19.96
2022-08-19T02:45:06.572Z,20.08
2022-08-19T02:45:41.590Z,20.10
2022-08-19T02:46:25.054Z,20.07
2022-08-19T02:46:56.841Z,20.05
2022-08-19T02:47:28.845Z,20.08
2022-08-19T02:48:00.764Z,20.13
2022-08-19T02:48:35.160Z,20.09
2022-08-19T02:49:09.021Z,20.00
2022-08-19T02:49:40.872Z,19.92
2022-08-19T02:50:13.791Z,20.00
2022-08-19T02:50:51.971Z,19.97
2022-08-19T02:51:32.167Z,19.92
2022-08-19T02:52:04.098Z,19.96
2022-08-19T02:52:36.657Z,20.03
2022-08-19T02:53:09.234Z,20.04
2022-08-19T02:53:40.997Z,20.13
2022-08-19T02:54:14.072Z,20.07
2022-08-19T02:54:46.411Z,20.16
2022-08-19T02:55:18.160Z,20.15
2022-08-19T02:55:51.768Z,20.21
2022-08-19T02:56:25.152Z,20.18
2022-08-19T02:56:57.059Z,20.21
2022-08-19T02:57:32.328Z,20.30
2022-08-19T02:58:04.219Z,20.26
2022-08-19T02:58:40.158Z,20.34
2022-08-19T02:59:12.758Z,20.28
2022-08-19T02:59:44.907Z,20.31
2022-08-19T03:00:17.477Z,20.33
2022-08-19T03:00:52.798Z,20.34
2022-08-19T03:01:26.487Z,20.40
2022-08-19T03:01:58.732Z,20.40
2022-08-19T03:02:31.615Z,20.43
2022-08-19T03:03:03.568Z,20.41
2022-08-19T03:03:35.315Z,20.34
2022-08-19T03:04:09.003Z,20.44
2022-08-19T03:04:40.836Z,20.41
2022-08-19T03:05:12.657Z,20.49
2022-08-19T03:05:48.025Z,20.39
2022-08-19T03:06:28.948Z,20.21
2022-08-19T03:07:10.850Z,20.21
2022-08-19T03:07:43.294Z,20.33
2022-08-19T03:08:15.749Z,20.31
2022-08-19T03:08:49.767Z,20.25
2022-08-19T03:09:22.361Z,20.26
2022-08-19T03:09:54.214Z,20.26
2022-08-19T03:10:25.982Z,20.23
2022-08-19T03:10:57.731Z,20.27
2022-08-19T03:11:32.914Z,20.20
2022-08-19T03:12:05.988Z,20.21
2022-08-19T03:12:39.784Z,20.13
2022-08-19T03:13:16.585Z,20.17
2022-08-19T03:13:52.036Z,20.28
2022-08-19T03:14:24.285Z,20.30
2022-08-19T03:14:56.380Z,20.23
2022-08-19T03:15:28.519Z,20.28
2022-08-19T03:16:00.906Z,20.21
2022-08-19T03:16:36.215Z,20.21
2022-08-19T03:17:09.081Z,20.33
2022-08-19T03:17:41.114Z,20.40
2022-08-19T03:18:14.422Z,20.36
2022-08-19T03:18:46.772Z,20.35
2022-08-19T03:19:20.782Z,20.35
2022-08-19T03:19:54.070Z,20.30
2022-08-19T03:20:28.711Z,20.25
2022-08-19T03:21:01.772Z,20.09
2022-08-19T03:21:34.707Z,20.17
2022-08-19T03:22:09.414Z,20.23
2022-08-19T03:22:41.500Z,20.17
2022-08-19T03:23:18.282Z,20.22
2022-08-19T03:23:51.167Z,20.12
2022-08-19T03:24:23.400Z,20.06
2022-08-19T03:24:55.262Z,20.14
2022-08-19T03:25:27.307Z,20.18
2022-08-19T03:26:05.649Z,20.20
2022-08-19T03:26:52.666Z,20.07
2022-08-19T03:27:24.545Z,20.08
2022-08-19T03:28:01.880Z,20.17
2022-08-19T03:28:34.912Z,20.09
2022-08-19T03:29:06.854Z,20.03
2022-08-19T03:29:43.199Z,19.98
2022-08-19T03:30:16.790Z,19.81
2022-08-19T03:31:01.496Z,19.89
2022-08-19T03:31:43.700Z,19.72
2022-08-19T03:32:32.302Z,19.55
2022-08-19T03:33:04.655Z,19.76
2022-08-19T03:33:39.941Z,19.75
2022-08-19T03:34:14.723Z,19.86
2022-08-19T03:34:46.815Z,19.93
2022-08-19T03:35:18.741Z,19.94
2022-08-19T03:36:04.941Z,19.94
2022-08-19T03:36:36.925Z,19.96
2022-08-19T03:37:13.114Z,19.80
2022-08-19T03:37:45.535Z,19.86
2022-08-19T03:38:17.614Z,19.81
2022-08-19T03:38:59.564Z,19.94
2022-08-19T03:39:32.101Z,19.91
2022-08-19T03:40:04.894Z,19.89
2022-08-19T03:40:38.089Z,19.66
2022-08-19T03:41:13.738Z,19.61
2022-08-19T03:41:48.589Z,19.81
2022-08-19T03:42:38.676Z,19.83
2022-08-19T03:43:12.455Z,19.82
2022-08-19T03:43:47.631Z,19.71
2022-08-19T03:44:23.119Z,19.62
2022-08-19T03:44:54.834Z,19.35
2022-08-19T03:45:26.597Z,19.56
2022-08-19T03:46:02.208Z,19.71
2022-08-19T03:46:34.926Z,19.80
2022-08-19T03:47:07.347Z,19.94
2022-08-19T03:47:39.483Z,19.92
2022-08-19T03:48:11.422Z,19.96
2022-08-19T03:48:45.142Z,19.65
2022-08-19T03:49:18.181Z,19.66
2022-08-19T03:49:50.593Z,19.77
2022-08-19T03:50:22.443Z,19.89
2022-08-19T03:50:54.240Z,19.88
2022-08-19T03:51:32.317Z,19.80
2022-08-19T03:52:08.224Z,19.94
2022-08-19T03:52:40.572Z,19.91
2022-08-19T03:53:18.743Z,19.83
2022-08-19T03:53:50.679Z,19.78
2022-08-19T03:54:25.287Z,19.82
2022-08-19T03:54:57.445Z,19.84
2022-08-19T03:55:30.302Z,19.84
2022-08-19T03:56:02.669Z,19.97
2022-08-19T03:56:37.612Z,19.97
2022-08-19T03:57:12.185Z,20.15
2022-08-19T03:57:44.297Z,20.18
2022-08-19T03:58:16.216Z,20.15
2022-08-19T03:58:48.756Z,20.09
2022-08-19T03:59:26.573Z,20.10
2022-08-19T04:00:12.531Z,19.99
2022-08-19T04:00:45.199Z,19.72
2022-08-19T04:01:21.325Z,19.51
2022-08-19T04:02:11.470Z,19.50
2022-08-19T04:03:00.052Z,19.63
2022-08-19T04:03:32.577Z,19.85
2022-08-19T04:04:06.337Z,19.96
2022-08-19T04:04:41.327Z,20.00
2022-08-19T04:05:15.711Z,19.96
2022-08-19T04:05:48.328Z,20.02
2022-08-19T04:06:24.558Z,19.92
2022-08-19T04:06:57.790Z,19.72
2022-08-19T04:07:29.973Z,19.72
2022-08-19T04:08:02.118Z,19.83
2022-08-19T04:08:36.526Z,19.71
2022-08-19T04:09:12.243Z,19.43
2022-08-19T04:09:47.084Z,19.61
2022-08-19T04:10:21.410Z,19.77
2022-08-19T04:10:53.708Z,19.88
2022-08-19T04:11:43.610Z,19.84
2022-08-19T04:12:16.306Z,19.62
2022-08-19T04:12:48.186Z,19.68
2022-08-19T04:13:20.896Z,19.68
2022-08-19T04:13:54.863Z,19.79
2022-08-19T04:14:31.078Z,19.79
2022-08-19T04:15:03.834Z,19.76
2022-08-19T04:15:42.425Z,19.62
2022-08-19T04:16:15.235Z,19.58
2022-08-19T04:16:48.956Z,19.73
2022-08-19T04:17:20.922Z,19.70
2022-08-19T04:17:53.259Z,19.66
2022-08-19T04:18:25.165Z,19.68
2022-08-19T04:19:00.811Z,19.73
2022-08-19T04:19:35.569Z,19.78
2022-08-19T04:20:07.919Z,19.86
2022-08-19T04:20:47.737Z,19.76
2022-08-19T04:21:25.377Z,19.82
2022-08-19T04:21:57.434Z,19.68
2022-08-19T04:22:29.442Z,19.43
2022-08-19T04:23:01.775Z,19.31
2022-08-19T04:23:36.455Z,19.41
2022-08-19T04:24:15.835Z,19.51
2022-08-19T04:24:47.767Z,19.54
2022-08-19T04:25:21.523Z,19.55
2022-08-19T04:25:53.557Z,19.58
2022-08-19T04:26:46.628Z,19.62
2022-08-19T04:27:37.400Z,19.62
2022-08-19T04:28:11.422Z,19.65
2022-08-19T04:28:45.056Z,19.71
2022-08-19T04:29:32.949Z,19.71
2022-08-19T04:30:26.114Z,19.53
2022-08-19T04:31:07.100Z,19.50
2022-08-19T04:31:46.553Z,19.60
2022-08-19T04:32:20.200Z,19.64
2022-08-19T04:33:05.721Z,19.75
2022-08-19T04:33:39.150Z,19.72
2022-08-19T04:34:16.514Z,19.60
2022-08-19T04:35:02.423Z,19.59
2022-08-19T04:36:03.055Z,19.60
2022-08-19T04:36:45.539Z,19.56
2022-08-19T04:37:18.083Z,19.60
2022-08-19T04:37:53.986Z,19.68
2022-08-19T04:38:31.793Z,19.79
2022-08-19T04:39:19.741Z,19.93
2022-08-19T04:41:45.063Z,19.70
2022-08-19T04:42:37.524Z,19.61
2022-08-19T04:43:09.635Z,19.64
2022-08-19T04:43:41.666Z,19.61
2022-08-19T04:44:14.482Z,19.61
2022-08-19T04:44:55.717Z,19.77
2022-08-19T04:45:44.642Z,19.59
2022-08-19T04:46:39.978Z,19.71
2022-08-19T04:47:46.811Z,19.68
2022-08-19T04:49:39.564Z,19.68
2022-08-19T04:50:20.625Z,19.53
2022-08-19T04:50:58.934Z,19.60
2022-08-19T04:51:32.260Z,19.64
2022-08-19T04:52:33.045Z,19.61
2022-08-19T04:53:14.084Z,19.72
2022-08-19T04:54:04.292Z,19.72
2022-08-19T04:55:01.933Z,19.86
2022-08-19T04:55:58.995Z,19.76
2022-08-19T04:57:00.822Z,20.01
2022-08-19T04:57:38.646Z,19.99
2022-08-19T04:58:41.137Z,19.98
2022-08-19T04:59:11.391Z,19.98
2022-08-19T05:00:14.153Z,19.97
2022-08-19T05:00:58.482Z,20.02
2022-08-19T05:01:33.937Z,20.03
2022-08-19T05:02:09.454Z,20.10
2022-08-19T05:02:46.115Z,20.17
2022-08-19T05:03:20.693Z,20.09
2022-08-19T05:03:53.703Z,19.96
2022-08-19T05:04:25.591Z,20.08
2022-08-19T05:05:00.610Z,19.98
2022-08-19T05:05:32.580Z,19.92
2022-08-19T05:06:19.354Z,20.00
2022-08-19T05:06:52.543Z,19.95
2022-08-19T05:07:28.839Z,19.92
2022-08-19T05:08:00.600Z,19.99
2022-08-19T05:08:32.397Z,20.07
2022-08-19T05:09:06.080Z,20.02
2022-08-19T05:09:58.145Z,19.97
2022-08-19T05:10:42.250Z,20.05
2022-08-19T05:11:19.097Z,20.16
2022-08-19T05:11:54.660Z,20.13
2022-08-19T05:12:29.645Z,20.00
2022-08-19T05:13:01.445Z,20.00
2022-08-19T05:13:33.699Z,20.11
2022-08-19T05:14:06.705Z,20.15
2022-08-19T05:14:38.553Z,20.16
2022-08-19T05:15:10.581Z,20.07
2022-08-19T05:15:42.625Z,20.04
2022-08-19T05:16:16.130Z,19.87
2022-08-19T05:16:48.370Z,19.68
2022-08-19T05:17:28.982Z,19.86
2022-08-19T05:18:20.436Z,19.89
2022-08-19T05:19:12.275Z,19.92
2022-08-19T05:20:02.871Z,19.89
2022-08-19T05:20:53.351Z,19.82
2022-08-19T05:21:46.390Z,19.91
2022-08-19T05:22:33.463Z,19.92
2022-08-19T05:23:12.894Z,19.97
2022-08-19T05:23:52.508Z,19.83
2022-08-19T05:24:24.667Z,20.00
2022-08-19T05:25:11.701Z,20.10
2022-08-19T05:25:45.369Z,20.09
2022-08-19T05:26:17.107Z,20.06
2022-08-19T05:26:52.143Z,20.08
2022-08-19T05:27:23.877Z,20.13
2022-08-19T05:27:55.598Z,20.22
2022-08-19T05:28:27.683Z,20.27
2022-08-19T05:28:59.487Z,20.37
2022-08-19T05:29:36.287Z,20.28
2022-08-19T05:30:09.719Z,20.20
2022-08-19T05:30:47.278Z,20.25
2022-08-19T05:31:19.847Z,20.22
2022-08-19T05:31:52.470Z,20.20
2022-08-19T05:32:24.430Z,20.23
2022-08-19T05:32:56.821Z,20.13
2022-08-19T05:33:28.652Z,20.13
2022-08-19T05:34:00.726Z,20.28
2022-08-19T05:34:33.875Z,20.30
2022-08-19T05:35:06.634Z,20.17
2022-08-19T05:35:40.093Z,20.08
2022-08-19T05:36:12.307Z,20.08
2022-08-19T05:36:46.154Z,20.09
2022-08-19T05:37:18.515Z,19.91
2022-08-19T05:37:50.504Z,19.94
2022-08-19T05:38:29.112Z,19.90
2022-08-19T05:39:01.407Z,20.09
2022-08-19T05:39:36.611Z,20.13
2022-08-19T05:40:10.650Z,20.02
2022-08-19T05:40:48.825Z,20.02
2022-08-19T05:41:22.268Z,20.11
2022-08-19T05:42:00.497Z,19.98
2022-08-19T05:42:32.797Z,19.91
2022-08-19T05:43:06.742Z,19.63
2022-08-19T05:43:39.088Z,19.57
2022-08-19T05:44:27.672Z,19.63
2022-08-19T05:45:10.028Z,19.71
2022-08-19T05:45:43.131Z,19.64
2022-08-19T05:46:28.025Z,19.93
2022-08-19T05:47:03.353Z,19.83
2022-08-19T05:47:36.632Z,19.91
2022-08-19T05:48:14.960Z,20.05
2022-08-19T05:48:47.461Z,20.11
2022-08-19T05:49:21.121Z,20.18
2022-08-19T05:49:53.151Z,20.31
2022-08-19T05:50:27.367Z,20.33
2022-08-19T05:51:04.978Z,20.45
2022-08-19T05:51:40.532Z,20.44
2022-08-19T05:52:18.559Z,20.38
2022-08-19T05:52:51.426Z,20.16
2022-08-19T05:53:23.577Z,20.30
2022-08-19T05:53:55.508Z,20.27
2022-08-19T05:54:28.078Z,20.32
2022-08-19T05:54:59.992Z,20.25
2022-08-19T05:55:32.879Z,20.26
2022-08-19T05:56:07.864Z,20.29
2022-08-19T05:56:41.380Z,20.17
2022-08-19T05:57:13.459Z,20.31
2022-08-19T05:57:45.466Z,20.35
2022-08-19T05:58:18.290Z,20.25
2022-08-19T05:58:55.161Z,20.24
2022-08-19T05:59:27.175Z,20.30
2022-08-19T06:00:01.223Z,20.36
2022-08-19T06:00:56.306Z,20.30
2022-08-19T06:01:40.402Z,20.36
2022-08-19T06:02:38.362Z,20.29
2022-08-19T06:03:29.828Z,20.09
2022-08-19T06:06:47.347Z,20.13
2022-08-19T06:10:52.565Z,20.25
2022-08-19T06:11:42.254Z,20.25
2022-08-19T06:12:14.164Z,20.21
2022-08-19T06:13:00.003Z,20.10
2022-08-19T06:13:35.236Z,19.98
2022-08-19T06:14:16.493Z,20.02
2022-08-19T06:14:48.778Z,20.02
2022-08-19T06:15:35.751Z,20.06
2022-08-19T06:20:13.931Z,20.18
2022-08-19T06:22:12.532Z,20.44
2022-08-19T06:26:07.700Z,20.22
2022-08-19T06:28:14.923Z,20.41
2022-08-19T06:28:48.938Z,20.44
2022-08-19T06:29:23.996Z,20.50
2022-08-19T06:29:58.744Z,20.46
2022-08-19T06:30:33.642Z,20.27
2022-08-19T06:31:08.807Z,20.24
2022-08-19T06:31:54.453Z,20.25
2022-08-19T06:32:32.655Z,20.01
2022-08-19T06:33:04.695Z,20.11
2022-08-19T06:33:37.270Z,20.11
2022-08-19T06:34:09.483Z,20.16
2022-08-19T06:34:43.500Z,20.27
2022-08-19T06:35:15.572Z,20.21
2022-08-19T06:35:47.538Z,20.30
2022-08-19T06:36:36.250Z,20.50
2022-08-19T06:37:08.705Z,20.42
2022-08-19T06:37:43.697Z,20.43
2022-08-19T06:38:15.847Z,20.43
2022-08-19T06:38:47.800Z,20.37
2022-08-19T06:39:32.437Z,20.47
2022-08-19T06:40:05.102Z,20.37
2022-08-19T06:40:39.375Z,20.44
2022-08-19T06:41:12.282Z,20.44
2022-08-19T06:41:51.221Z,20.31
2022-08-19T06:42:24.537Z,20.39
2022-08-19T06:42:57.246Z,20.33
2022-08-19T06:43:29.414Z,20.47
2022-08-19T06:44:01.449Z,20.53
2022-08-19T06:44:43.076Z,20.58
2022-08-19T06:45:15.866Z,20.55
2022-08-19T06:45:47.822Z,20.50
2022-08-19T06:46:20.747Z,20.35
2022-08-19T06:46:54.756Z,20.51
2022-08-19T06:47:28.931Z,20.44
2022-08-19T06:48:00.930Z,20.38
2022-08-19T06:48:36.582Z,20.40
2022-08-19T06:49:12.350Z,20.38
2022-08-19T06:49:44.318Z,20.55
2022-08-19T06:50:16.600Z,20.52
2022-08-19T06:50:49.531Z,20.56
2022-08-19T06:51:23.247Z,20.51
2022-08-19T06:51:57.714Z,20.63
2022-08-19T06:52:36.583Z,20.65
2022-08-19T06:53:10.257Z,20.66
2022-08-19T06:54:01.148Z,20.56
2022-08-19T06:54:40.546Z,20.49
2022-08-19T06:55:30.688Z,20.52
2022-08-19T06:56:12.428Z,20.71
2022-08-19T07:31:16.986Z,20.46
2022-08-19T07:31:53.735Z,20.41
2022-08-19T07:32:31.279Z,20.39
2022-08-19T07:33:06.496Z,20.26
2022-08-19T07:33:38.969Z,20.22
2022-08-19T07:34:14.416Z,20.18
2022-08-19T07:34:46.906Z,20.10
2022-08-19T07:35:21.450Z,20.24
2022-08-19T07:35:53.504Z,20.18
2022-08-19T07:36:33.177Z,20.26
2022-08-19T07:37:06.716Z,20.23
2022-08-19T07:37:39.286Z,20.25
2022-08-19T07:38:11.280Z,20.19
2022-08-19T07:38:46.113Z,20.35
2022-08-19T07:39:23.188Z,20.30
2022-08-19T07:39:55.020Z,20.37
2022-08-19T07:40:26.779Z,20.42
2022-08-19T07:40:58.858Z,20.35
2022-08-19T07:41:32.321Z,20.27
2022-08-19T07:42:10.834Z,20.26
2022-08-19T07:42:45.197Z,20.41
2022-08-19T07:43:23.344Z,20.51
2022-08-19T07:43:56.117Z,20.44
2022-08-19T07:44:28.281Z,20.46
2022-08-19T07:45:08.421Z,20.44
2022-08-19T07:45:40.495Z,20.38
2022-08-19T07:46:16.182Z,20.44
2022-08-19T07:46:53.226Z,20.49
2022-08-19T07:47:49.678Z,20.33
2022-08-19T07:48:17.269Z,20.34
2022-08-19T07:48:51.314Z,20.36
2022-08-19T07:49:23.810Z,20.31
2022-08-19T07:49:55.663Z,20.43
2022-08-19T07:50:27.926Z,20.48
2022-08-19T07:51:05.727Z,20.46
2022-08-19T07:51:42.095Z,20.42
2022-08-19T07:52:19.740Z,20.44
2022-08-19T07:52:51.640Z,20.27
2022-08-19T07:53:25.291Z,20.29
2022-08-19T07:53:57.304Z,20.43
2022-08-19T07:54:35.213Z,20.56
2022-08-19T07:55:42.320Z,20.56
2022-08-19T07:56:13.083Z,20.61
2022-08-19T07:56:46.541Z,20.61
2022-08-19T07:57:19.993Z,20.66
2022-08-19T07:57:53.614Z,20.65
2022-08-19T07:58:25.879Z,20.73
2022-08-19T07:58:58.080Z,20.70
2022-08-19T07:59:30.364Z,20.55
2022-08-19T08:00:02.885Z,20.50
2022-08-19T08:00:46.879Z,20.41
2022-08-19T08:01:24.148Z,20.28
2022-08-19T08:01:57.111Z,20.25
2022-08-19T08:02:28.900Z,20.14
2022-08-19T08:03:00.799Z,20.16
2022-08-19T08:03:51.369Z,20.31
2022-08-19T08:04:41.741Z,20.38
2022-08-19T08:05:35.520Z,20.21
2022-08-19T08:06:25.990Z,20.22
2022-08-19T08:07:18.712Z,20.27
2022-08-19T08:08:09.419Z,20.18
2022-08-19T08:08:59.608Z,20.03
2022-08-19T08:09:41.202Z,20.18
2022-08-19T08:10:21.002Z,20.27
2022-08-19T08:10:54.590Z,20.12
2022-08-19T08:11:28.961Z,20.14
2022-08-19T08:12:33.170Z,19.94
2022-08-19T08:13:09.323Z,19.92
2022-08-19T08:13:43.452Z,19.89
2022-08-19T08:14:29.323Z,20.10
2022-08-19T08:15:15.307Z,20.28
2022-08-19T08:15:49.035Z,20.23
2022-08-19T08:16:31.001Z,20.39
2022-08-19T08:17:10.959Z,20.46
2022-08-19T08:17:49.227Z,20.49
2022-08-19T08:18:28.100Z,20.40
2022-08-19T08:19:02.357Z,20.40
2022-08-19T08:19:34.320Z,20.44
2022-08-19T08:20:10.297Z,20.29
2022-08-19T08:20:42.034Z,20.30
2022-08-19T08:21:13.800Z,20.30
2022-08-19T08:21:45.744Z,20.39
2022-08-19T08:22:39.692Z,20.14
2022-08-19T08:23:23.279Z,20.14
2022-08-19T08:23:56.589Z,20.39
2022-08-19T08:24:31.761Z,20.30
2022-08-19T08:25:17.861Z,20.17
2022-08-19T08:25:50.379Z,20.26
2022-08-19T08:26:22.107Z,20.24
2022-08-19T08:26:57.420Z,20.23
2022-08-19T08:27:31.987Z,20.27
2022-08-19T08:28:05.714Z,20.16
2022-08-19T08:28:38.518Z,20.36
2022-08-19T08:29:13.872Z,20.28
2022-08-19T08:29:46.128Z,20.21
2022-08-19T08:30:21.219Z,20.47
2022-08-19T08:30:53.316Z,20.37
2022-08-19T08:31:25.227Z,20.38
2022-08-19T08:31:59.607Z,20.31
2022-08-19T08:32:32.076Z,20.28
2022-08-19T08:33:03.884Z,20.41
2022-08-19T08:33:35.659Z,20.52
2022-08-19T08:34:08.681Z,20.53
2022-08-19T08:34:41.210Z,20.49